createdAt,value
2022-12-14T00:00:04.922Z,16.83
2022-12-14T00:03:16.380Z,14.68
2022-12-14T00:06:27.095Z,15.30
2022-12-14T00:09:29.240Z,15.90
2022-12-14T00:12:31.587Z,15.25
2022-12-14T00:15:34.044Z,15.82
2022-12-14T00:18:36.623Z,15.57
2022-12-14T00:21:38.780Z,17.25
2022-12-14T00:24:41.912Z,16.95
2022-12-14T00:27:45.617Z,16.52
2022-12-14T00:30:48.301Z,15.90
2022-12-14T00:33:51.289Z,16.20
2022-12-14T00:36:54.650Z,16.87
2022-12-14T00:39:56.734Z,17.77
2022-12-14T00:42:59.636Z,17.20
2022-12-14T00:46:01.859Z,16.20
2022-12-14T00:49:04.446Z,17.48
2022-12-14T00:52:06.559Z,17.48
2022-12-14T00:55:09.350Z,17.55
2022-12-14T00:58:13.227Z,17.50
2022-12-14T01:01:15.669Z,17.83
2022-12-14T01:04:17.983Z,17.17
2022-12-14T01:07:20.426Z,19.23
2022-12-14T01:10:24.189Z,20.27
2022-12-14T01:13:26.759Z,18.08
2022-12-14T01:16:29.257Z,17.12
2022-12-14T01:19:31.876Z,18.17
2022-12-14T01:22:34.041Z,18.23
2022-12-14T01:25:36.478Z,18.30
2022-12-14T01:28:38.754Z,19.50
2022-12-14T01:31:41.912Z,14.93
2022-12-14T01:34:44.170Z,16.10
2022-12-14T01:37:49.098Z,16.00
2022-12-14T01:40:57.645Z,17.12
2022-12-14T01:44:24.679Z,17.20
2022-12-14T01:47:34.362Z,17.92
2022-12-14T01:50:43.876Z,13.57
2022-12-14T01:56:49.376Z,15.80
2022-12-14T01:59:52.141Z,18.75
2022-12-14T02:03:05.493Z,15.63
2022-12-14T02:06:17.037Z,15.35
2022-12-14T02:09:25.454Z,18.08
2022-12-14T02:12:41.086Z,15.98
2022-12-14T02:15:43.985Z,18.75
2022-12-14T02:18:46.444Z,16.85
2022-12-14T02:21:48.431Z,17.40
2022-12-14T02:25:08.123Z,13.73
2022-12-14T02:28:16.224Z,15.65
2022-12-14T02:31:37.539Z,15.70
2022-12-14T02:34:52.609Z,12.98
2022-12-14T02:38:16.793Z,12.88
2022-12-14T02:41:24.964Z,14.87
2022-12-14T02:45:04.896Z,13.37
2022-12-14T02:48:07.002Z,15.25
2022-12-14T02:52:07.958Z,14.73
2022-12-14T02:55:21.395Z,12.43
2022-12-14T02:58:29.121Z,11.20
2022-12-14T03:01:31.477Z,13.52
2022-12-14T03:04:45.842Z,14.80
2022-12-14T03:07:52.772Z,13.23
2022-12-14T03:10:59.757Z,13.10
2022-12-14T03:14:10.086Z,14.90
2022-12-14T03:17:19.843Z,15.63
2022-12-14T03:20:25.651Z,15.52
2022-12-14T03:23:33.668Z,15.35
2022-12-14T03:26:56.581Z,14.65
2022-12-14T03:30:09.685Z,14.93
2022-12-14T03:33:17.061Z,13.98
2022-12-14T03:36:42.393Z,15.82
2022-12-14T03:39:46.350Z,13.88
2022-12-14T03:43:02.961Z,15.70
2022-12-14T03:46:11.671Z,16.35
2022-12-14T03:49:19.246Z,15.75
2022-12-14T03:52:43.753Z,14.35
2022-12-14T03:56:04.241Z,15.90
2022-12-14T03:59:18.043Z,14.00
2022-12-14T04:02:36.275Z,14.43
2022-12-14T04:05:51.980Z,15.32
2022-12-14T04:09:04.383Z,17.95
2022-12-14T04:12:34.840Z,15.48
2022-12-14T04:15:57.757Z,16.33
2022-12-14T04:19:05.383Z,13.57
2022-12-14T04:22:16.905Z,15.95
2022-12-14T04:25:44.475Z,15.75
2022-12-14T04:29:20.924Z,13.73
2022-12-14T04:32:26.252Z,17.20
2022-12-14T04:35:36.089Z,16.20
2022-12-14T04:38:42.462Z,14.82
2022-12-14T04:41:50.174Z,14.55
2022-12-14T04:44:56.111Z,14.77
2022-12-14T04:48:23.302Z,15.50
2022-12-14T04:51:38.968Z,13.70
2022-12-14T04:54:54.489Z,14.87
2022-12-14T04:58:02.036Z,12.95
2022-12-14T05:01:40.373Z,13.05
2022-12-14T05:04:58.938Z,15.18
2022-12-14T05:08:36.393Z,14.20
2022-12-14T05:11:53.564Z,14.07
2022-12-14T05:15:03.324Z,12.35
2022-12-14T05:18:07.034Z,13.18
2022-12-14T05:21:30.109Z,13.68
2022-12-14T05:24:32.813Z,13.65
2022-12-14T05:27:35.074Z,11.73
2022-12-14T05:30:38.048Z,13.05
2022-12-14T05:33:40.274Z,13.32
2022-12-14T05:36:42.654Z,13.62
2022-12-14T05:39:44.788Z,11.98
2022-12-14T05:42:52.336Z,12.85
2022-12-14T05:46:02.108Z,12.82
2022-12-14T05:49:04.580Z,11.88
2022-12-14T05:52:07.149Z,12.00
2022-12-14T05:55:09.687Z,12.10
2022-12-14T05:58:11.761Z,11.85
2022-12-14T06:01:19.102Z,11.07
2022-12-14T06:04:22.307Z,11.45
2022-12-14T06:07:27.927Z,12.43
2022-12-14T06:10:31.871Z,12.65
2022-12-14T06:13:38.425Z,11.88
2022-12-14T06:16:42.718Z,11.20
2022-12-14T06:19:50.077Z,10.32
2022-12-14T06:22:56.595Z,12.20
2022-12-14T06:25:58.717Z,10.70
2022-12-14T06:29:01.582Z,9.75
2022-12-14T06:32:03.792Z,10.30
2022-12-14T06:35:07.056Z,10.30
2022-12-14T06:38:09.367Z,11.27
2022-12-14T06:41:11.906Z,9.95
2022-12-14T06:44:14.716Z,10.13
2022-12-14T06:47:17.403Z,10.88
2022-12-14T06:50:19.763Z,12.55
2022-12-14T06:53:22.299Z,13.80
2022-12-14T06:56:27.009Z,12.50
2022-12-14T06:59:30.337Z,11.32
2022-12-14T07:02:32.939Z,10.23
2022-12-14T07:05:36.104Z,10.73
2022-12-14T07:08:39.349Z,10.10
2022-12-14T07:11:42.228Z,11.12
2022-12-14T07:14:44.369Z,11.20
2022-12-14T07:17:46.865Z,9.55
2022-12-14T07:21:05.672Z,11.30
2022-12-14T07:24:09.144Z,9.70
2022-12-14T07:27:11.761Z,10.00
2022-12-14T07:30:14.567Z,9.98
2022-12-14T07:33:16.743Z,10.85
2022-12-14T07:36:20.788Z,12.18
2022-12-14T07:39:23.009Z,11.00
2022-12-14T07:42:25.455Z,14.52
2022-12-14T07:45:27.637Z,10.98
2022-12-14T07:48:30.519Z,13.02
2022-12-14T07:51:36.126Z,10.57
2022-12-14T07:54:38.548Z,12.43
2022-12-14T07:57:40.668Z,11.68
2022-12-14T08:00:43.109Z,10.95
2022-12-14T08:03:48.072Z,12.25
2022-12-14T08:06:50.392Z,13.45
2022-12-14T08:09:52.870Z,12.57
2022-12-14T08:12:55.087Z,14.25
2022-12-14T08:16:02.826Z,11.43
2022-12-14T08:19:05.040Z,9.95
2022-12-14T08:22:07.601Z,13.23
2022-12-14T08:25:10.360Z,11.77
2022-12-14T08:28:13.266Z,12.13
2022-12-14T08:31:18.274Z,11.35
2022-12-14T08:34:22.887Z,10.82
2022-12-14T08:37:25.215Z,12.75
2022-12-14T08:40:29.823Z,12.50
2022-12-14T08:43:32.927Z,12.80
2022-12-14T08:46:37.682Z,11.65
2022-12-14T08:49:41.516Z,12.18
2022-12-14T08:52:48.204Z,12.85
2022-12-14T08:55:50.362Z,13.20
2022-12-14T08:58:52.990Z,10.68
2022-12-14T09:01:55.478Z,11.18
2022-12-14T09:04:58.184Z,12.88
2022-12-14T09:08:02.748Z,10.20
2022-12-14T09:11:06.310Z,10.75
2022-12-14T09:14:08.525Z,12.07
2022-12-14T09:17:11.013Z,11.65
2022-12-14T09:20:14.139Z,10.05
2022-12-14T09:23:16.495Z,12.77
2022-12-14T09:26:22.868Z,11.70
2022-12-14T09:29:29.807Z,11.25
2022-12-14T09:32:32.063Z,11.85
2022-12-14T09:35:37.624Z,10.55
2022-12-14T09:38:43.129Z,10.63
2022-12-14T09:42:13.853Z,19.27
2022-12-14T09:45:24.871Z,11.63
2022-12-14T09:48:28.063Z,10.90
2022-12-14T09:51:35.840Z,11.45
2022-12-14T09:54:39.433Z,13.82
2022-12-14T09:57:43.480Z,11.15
2022-12-14T10:00:55.504Z,11.82
2022-12-14T10:04:01.650Z,10.38
2022-12-14T10:07:34.729Z,12.55
2022-12-14T10:10:56.484Z,12.52
2022-12-14T10:14:17.110Z,12.48
2022-12-14T10:17:46.942Z,11.57
2022-12-14T10:20:53.817Z,11.67
2022-12-14T10:24:04.402Z,12.23
2022-12-14T10:27:08.682Z,11.48
2022-12-14T10:30:21.172Z,11.50
2022-12-14T10:33:31.536Z,11.68
2022-12-14T10:36:52.660Z,14.07
2022-12-14T10:40:29.265Z,10.43
2022-12-14T10:43:47.714Z,11.65
2022-12-14T10:47:03.164Z,11.70
2022-12-14T10:50:19.681Z,11.82
2022-12-14T10:53:29.049Z,10.95
2022-12-14T10:56:34.546Z,11.02
2022-12-14T10:59:43.756Z,11.98
2022-12-14T11:02:57.076Z,9.45
2022-12-14T11:06:13.987Z,23.23
2022-12-14T11:09:25.087Z,11.93
2022-12-14T11:12:28.231Z,11.90
2022-12-14T11:15:42.986Z,11.93
2022-12-14T11:18:57.592Z,12.45
2022-12-14T11:22:26.537Z,12.73
2022-12-14T11:25:35.365Z,11.38
2022-12-14T11:31:53.008Z,10.38
2022-12-14T11:34:58.915Z,10.25
2022-12-14T11:38:16.500Z,12.35
2022-12-14T11:41:20.998Z,11.02
2022-12-14T11:44:31.907Z,11.52
2022-12-14T11:47:34.283Z,10.43
2022-12-14T11:50:36.801Z,9.80
2022-12-14T11:53:40.927Z,11.85
2022-12-14T11:56:43.692Z,11.40
2022-12-14T11:59:46.984Z,10.95
2022-12-14T12:03:03.001Z,10.90
2022-12-14T12:06:10.065Z,11.23
2022-12-14T12:09:27.400Z,11.07
2022-12-14T12:12:31.125Z,11.60
2022-12-14T12:15:50.274Z,12.20
2022-12-14T12:19:25.500Z,11.68
2022-12-14T12:22:31.352Z,11.93
2022-12-14T12:25:37.749Z,10.98
2022-12-14T12:28:43.764Z,11.57
2022-12-14T12:32:00.688Z,11.07
2022-12-14T12:35:11.301Z,11.95
2022-12-14T12:38:27.605Z,11.85
2022-12-14T12:41:36.432Z,11.88
2022-12-14T12:44:51.436Z,12.10
2022-12-14T12:48:00.781Z,10.65
2022-12-14T12:51:12.811Z,12.30
2022-12-14T12:54:21.590Z,12.10
2022-12-14T12:57:30.037Z,12.00
2022-12-14T13:00:33.829Z,12.10
2022-12-14T13:03:41.416Z,11.73
2022-12-14T13:06:52.365Z,11.20
2022-12-14T13:10:06.174Z,12.15
2022-12-14T13:13:22.616Z,10.43
2022-12-14T13:16:32.333Z,11.05
2022-12-14T13:19:52.032Z,12.52
2022-12-14T13:23:05.709Z,11.07
2022-12-14T13:26:57.733Z,11.40
2022-12-14T13:30:20.772Z,9.85
2022-12-14T13:33:51.202Z,11.52
2022-12-14T13:37:09.230Z,10.40
2022-12-14T13:40:22.608Z,11.27
2022-12-14T13:43:37.371Z,10.60
2022-12-14T13:46:41.152Z,12.07
2022-12-14T13:53:27.606Z,11.27
2022-12-14T13:56:34.512Z,12.70
2022-12-14T13:59:41.870Z,11.88
2022-12-14T14:02:51.177Z,12.65
2022-12-14T14:05:57.155Z,12.13
2022-12-14T14:09:03.144Z,12.30
2022-12-14T14:12:33.671Z,12.95
2022-12-14T14:16:26.824Z,12.57
2022-12-14T14:19:22.431Z,11.02
2022-12-14T14:22:29.602Z,12.75
2022-12-14T14:25:40.565Z,11.82
2022-12-14T14:28:42.853Z,12.25
2022-12-14T14:35:01.753Z,11.63
2022-12-14T14:38:29.588Z,11.80
2022-12-14T14:41:38.101Z,12.23
2022-12-14T14:44:48.545Z,11.68
2022-12-14T14:47:56.990Z,12.68
2022-12-14T14:51:08.653Z,11.07
2022-12-14T14:58:05.088Z,10.70
2022-12-14T15:01:20.298Z,11.30
2022-12-14T15:04:45.013Z,13.35
2022-12-14T15:07:47.481Z,11.75
2022-12-14T15:10:50.607Z,12.23
2022-12-14T15:14:03.991Z,13.18
2022-12-14T15:17:14.796Z,11.88
2022-12-14T15:20:27.046Z,14.10
2022-12-14T15:23:36.759Z,13.13
2022-12-14T15:26:38.936Z,14.40
2022-12-14T15:29:45.366Z,13.00
2022-12-14T15:32:57.800Z,14.85
2022-12-14T15:36:12.139Z,13.50
2022-12-14T15:39:28.381Z,15.23
2022-12-14T15:42:30.762Z,15.27
2022-12-14T15:45:45.929Z,13.62
2022-12-14T15:48:58.728Z,14.38
2022-12-14T15:52:01.051Z,13.90
2022-12-14T15:55:03.995Z,12.82
2022-12-14T15:58:17.019Z,12.60
2022-12-14T16:01:24.443Z,13.20
2022-12-14T16:04:29.185Z,13.00
2022-12-14T16:07:38.675Z,12.40
2022-12-14T16:10:42.953Z,14.13
2022-12-14T16:13:46.277Z,12.93
2022-12-14T16:16:49.206Z,13.05
2022-12-14T16:20:00.918Z,13.38
2022-12-14T16:23:28.115Z,13.45
2022-12-14T16:26:38.581Z,13.55
2022-12-14T16:29:48.100Z,14.00
2022-12-14T16:33:03.934Z,12.82
2022-12-14T16:36:18.359Z,12.37
2022-12-14T16:39:26.882Z,13.90
2022-12-14T16:42:32.251Z,14.02
2022-12-14T16:45:43.435Z,14.23
2022-12-14T16:49:07.425Z,14.18
2022-12-14T16:52:09.471Z,13.00
2022-12-14T16:55:14.125Z,13.75
2022-12-14T16:58:18.023Z,12.98
2022-12-14T17:01:21.570Z,13.45
2022-12-14T17:04:37.254Z,14.25
2022-12-14T17:07:40.093Z,12.65
2022-12-14T17:10:42.246Z,12.82
2022-12-14T17:13:44.671Z,14.63
2022-12-14T17:17:00.171Z,12.50
2022-12-14T17:20:09.155Z,14.10
2022-12-14T17:23:17.797Z,12.37
2022-12-14T17:26:26.358Z,13.05
2022-12-14T17:29:30.053Z,11.75
2022-12-14T17:32:32.594Z,11.88
2022-12-14T17:35:34.709Z,11.70
2022-12-14T17:38:37.154Z,12.25
2022-12-14T17:41:42.566Z,10.85
2022-12-14T17:44:51.899Z,11.80
2022-12-14T17:47:54.990Z,12.90
2022-12-14T17:50:57.461Z,12.23
2022-12-14T17:53:59.750Z,13.38
2022-12-14T17:57:02.208Z,13.75
2022-12-14T18:00:23.494Z,12.93
2022-12-14T18:03:26.829Z,12.10
2022-12-14T18:06:29.089Z,13.23
2022-12-14T18:09:31.579Z,13.07
2022-12-14T18:12:33.708Z,13.98
2022-12-14T18:15:49.913Z,12.85
2022-12-14T18:18:58.051Z,12.10
2022-12-14T18:22:00.494Z,13.27
2022-12-14T18:25:02.663Z,12.50
2022-12-14T18:28:06.748Z,11.57
2022-12-14T18:31:19.551Z,12.85
2022-12-14T18:34:22.099Z,14.18
2022-12-14T18:37:27.250Z,12.07
2022-12-14T18:40:33.773Z,12.25
2022-12-14T18:43:41.718Z,12.77
2022-12-14T18:46:46.042Z,14.73
2022-12-14T18:49:51.734Z,11.75
2022-12-14T18:52:57.515Z,14.07
2022-12-14T18:56:01.205Z,13.23
2022-12-14T18:59:03.636Z,14.35
2022-12-14T19:02:06.521Z,14.38
2022-12-14T19:05:10.294Z,13.55
2022-12-14T19:08:12.972Z,12.82
2022-12-14T19:11:28.358Z,14.15
2022-12-14T19:14:30.557Z,12.60
2022-12-14T19:17:33.220Z,12.65
2022-12-14T19:20:35.339Z,13.80
2022-12-14T19:23:37.859Z,12.77
2022-12-14T19:26:40.087Z,12.88
2022-12-14T19:29:42.498Z,13.60
2022-12-14T19:32:44.635Z,13.70
2022-12-14T19:35:51.873Z,13.45
2022-12-14T19:38:53.969Z,12.82
2022-12-14T19:41:56.422Z,11.98
2022-12-14T19:44:58.910Z,14.02
2022-12-14T19:48:01.543Z,13.85
2022-12-14T19:51:05.558Z,12.82
2022-12-14T19:54:08.182Z,13.85
2022-12-14T19:57:10.782Z,11.77
2022-12-14T20:00:14.506Z,13.18
2022-12-14T20:03:18.255Z,12.50
2022-12-14T20:06:20.658Z,13.05
2022-12-14T20:09:23.130Z,13.88
2022-12-14T20:12:25.480Z,12.45
2022-12-14T20:15:28.139Z,11.98
2022-12-14T20:18:31.477Z,11.77
2022-12-14T20:21:34.328Z,13.98
2022-12-14T20:24:36.769Z,13.82
2022-12-14T20:27:40.947Z,13.32
2022-12-14T20:30:45.975Z,13.68
2022-12-14T20:33:49.502Z,14.00
2022-12-14T20:36:51.695Z,12.95
2022-12-14T20:39:54.370Z,13.15
2022-12-14T20:42:56.468Z,14.82
2022-12-14T20:45:58.939Z,13.23
2022-12-14T20:49:03.806Z,12.30
2022-12-14T20:52:06.481Z,13.85
2022-12-14T20:55:08.853Z,14.70
2022-12-14T20:58:11.379Z,14.02
2022-12-14T21:01:14.068Z,13.57
2022-12-14T21:04:16.772Z,12.85
2022-12-14T21:07:22.880Z,12.10
2022-12-14T21:10:28.410Z,11.60
2022-12-14T21:13:30.935Z,13.20
2022-12-14T21:16:33.865Z,12.77
2022-12-14T21:19:36.350Z,11.95
2022-12-14T21:22:38.826Z,12.55
2022-12-14T21:25:41.043Z,12.60
2022-12-14T21:28:43.471Z,13.73
2022-12-14T21:31:46.713Z,14.35
2022-12-14T21:34:49.852Z,13.80
2022-12-14T21:37:52.131Z,14.85
2022-12-14T21:41:14.117Z,14.63
2022-12-14T21:44:16.647Z,15.57
2022-12-14T21:47:27.956Z,14.23
2022-12-14T21:50:30.479Z,15.55
2022-12-14T21:53:35.411Z,14.90
2022-12-14T21:56:58.127Z,13.45
2022-12-14T22:00:00.678Z,14.18
2022-12-14T22:03:02.969Z,16.50
2022-12-14T22:06:10.034Z,15.15
2022-12-14T22:09:12.594Z,15.98
2022-12-14T22:12:16.533Z,15.63
2022-12-14T22:15:18.945Z,15.10
2022-12-14T22:18:21.426Z,13.98
2022-12-14T22:21:23.574Z,15.63
2022-12-14T22:24:27.985Z,13.65
2022-12-14T22:27:30.146Z,15.18
2022-12-14T22:30:32.628Z,15.38
2022-12-14T22:33:34.826Z,14.00
2022-12-14T22:36:37.278Z,16.10
2022-12-14T22:39:39.392Z,15.98
2022-12-14T22:42:41.885Z,16.95
2022-12-14T22:45:44.007Z,17.27
2022-12-14T22:48:46.454Z,17.48
2022-12-14T22:51:48.612Z,16.37
2022-12-14T22:54:51.013Z,15.90
2022-12-14T22:57:54.102Z,15.93
2022-12-14T23:00:56.858Z,15.60
2022-12-14T23:03:59.340Z,14.68
2022-12-14T23:07:01.874Z,14.75
2022-12-14T23:10:23.180Z,15.05
2022-12-14T23:13:44.063Z,14.27
2022-12-14T23:17:04.888Z,13.52
2022-12-14T23:20:26.473Z,13.62
2022-12-14T23:23:47.232Z,14.40
2022-12-14T23:27:09.850Z,14.07
2022-12-14T23:30:30.674Z,15.05
2022-12-14T23:33:52.507Z,14.35
2022-12-14T23:37:19.564Z,14.00
2022-12-14T23:40:41.121Z,14.30
2022-12-14T23:44:03.072Z,15.15
2022-12-14T23:47:23.951Z,14.30
2022-12-14T23:50:44.448Z,15.20
2022-12-14T23:54:05.257Z,14.45
2022-12-14T23:57:26.319Z,15.85
